Time;durP1;ratioP1;P1;durP2;ratioP2;P2;SDS_P1;SDS_P2;PMS_P1;PMS_P2;Temp;Humidity;BMP_temperature;BMP_pressure;BME280_temperature;BME280_humidity;BME280_pressure;Samples;Min_cycle;Max_cycle;Signal;HPM_P1;HPM_P2
2022/09/10 00:00:09;;;;;;;;;;;10.20;99.90;;;;;;5104443;27;19926;-57
2022/09/10 00:02:50;;;;;;;;;;;10.30;99.90;;;;;;5085548;27;19950;-53
2022/09/10 00:05:30;;;;;;;;;;;10.20;99.90;;;;;;5104727;27;20328;-54
2022/09/10 00:08:10;;;;;;;;;;;10.00;99.90;;;;;;5104936;27;20365;-54
2022/09/10 00:10:50;;;;;;;;;;;9.90;99.90;;;;;;5103006;27;20319;-53
2022/09/10 00:13:31;;;;;;;;;;;9.80;99.90;;;;;;5104936;27;19961;-54
2022/09/10 00:16:12;;;;;;;;;;;9.80;99.90;;;;;;5105358;27;20358;-54
2022/09/10 00:18:52;;;;;;;;;;;9.70;99.90;;;;;;5124736;27;19922;-56
2022/09/10 00:21:32;;;;;;;;;;;9.70;99.90;;;;;;5097694;27;19962;-54
2022/09/10 00:24:12;;;;;;;;;;;10.00;99.90;;;;;;5104618;27;20427;-57
2022/09/10 00:26:52;;;;;;;;;;;10.10;99.90;;;;;;5104765;27;19927;-55
2022/09/10 00:29:31;;;;;;;;;;;10.10;99.90;;;;;;5103809;27;19926;-55
2022/09/10 00:32:11;;;;;;;;;;;10.20;99.90;;;;;;5092598;27;19926;-54
2022/09/10 00:34:51;;;;;;;;;;;10.20;99.90;;;;;;5104833;27;20248;-54
2022/09/10 00:37:31;;;;;;;;;;;10.40;99.90;;;;;;5104192;27;20331;-54
2022/09/10 00:40:11;;;;;;;;;;;10.50;99.90;;;;;;5103872;27;19926;-54
2022/09/10 00:42:52;;;;;;;;;;;10.60;99.90;;;;;;5104601;27;19945;-54
2022/09/10 00:45:32;;;;;;;;;;;10.50;99.90;;;;;;5125374;27;20361;-53
2022/09/10 00:48:16;;;;;;;;;;;10.50;99.90;;;;;;5104615;27;19926;-53
2022/09/10 00:50:59;;;;;;;;;;;10.50;99.90;;;;;;5100332;27;19930;-54
2022/09/10 00:53:39;;;;;;;;;;;10.60;99.90;;;;;;5096509;27;19931;-54
2022/09/10 00:56:19;;;;;;;;;;;10.60;99.90;;;;;;5100882;27;19930;-54
2022/09/10 00:58:59;;;;;;;;;;;10.60;99.90;;;;;;5099682;27;19957;-54
2022/09/10 01:01:39;;;;;;;;;;;10.60;99.90;;;;;;5093702;27;20283;-55
2022/09/10 01:04:19;;;;;;;;;;;10.50;99.90;;;;;;5104356;27;20403;-54
2022/09/10 01:06:59;;;;;;;;;;;10.40;99.90;;;;;;5102546;27;19912;-56
2022/09/10 01:09:40;;;;;;;;;;;10.10;99.90;;;;;;5097504;27;19957;-54
2022/09/10 01:12:34;;;;;;;;;;;10.00;99.90;;;;;;5090486;27;20320;-53
2022/09/10 01:15:21;;;;;;;;;;;9.70;99.90;;;;;;5095336;27;20323;-55
2022/09/10 01:18:07;;;;;;;;;;;9.60;99.90;;;;;;5072452;28;19920;-54
2022/09/10 01:21:03;;;;;;;;;;;9.70;99.90;;;;;;5098442;27;20328;-54
2022/09/10 01:24:06;;;;;;;;;;;9.70;99.90;;;;;;5078503;27;19931;-55
2022/09/10 01:27:02;;;;;;;;;;;9.80;99.90;;;;;;5081341;28;19920;-54
2022/09/10 01:29:45;;;;;;;;;;;10.10;99.90;;;;;;5097241;27;19950;-55
2022/09/10 01:32:28;;;;;;;;;;;10.40;99.90;;;;;;5093149;27;20233;-55
2022/09/10 01:35:14;;;;;;;;;;;10.60;99.90;;;;;;5103883;27;19930;-54
2022/09/10 01:37:57;;;;;;;;;;;10.80;99.90;;;;;;5104302;27;19930;-54
2022/09/10 01:40:39;;;;;;;;;;;11.00;99.90;;;;;;5103959;27;19926;-54
2022/09/10 01:43:23;;;;;;;;;;;11.00;99.90;;;;;;5094474;27;19912;-54
2022/09/10 01:46:15;;;;;;;;;;;11.10;99.90;;;;;;5104361;27;19926;-53
2022/09/10 01:49:09;;;;;;;;;;;11.10;99.90;;;;;;5103984;27;19927;-54
2022/09/10 01:52:01;;;;;;;;;;;11.10;99.90;;;;;;5094702;27;19958;-53
2022/09/10 01:54:47;;;;;;;;;;;11.20;99.90;;;;;;5104735;27;20381;-53
2022/09/10 01:57:33;;;;;;;;;;;11.20;99.90;;;;;;5104257;27;19943;-54
2022/09/10 02:00:16;;;;;;;;;;;11.30;99.90;;;;;;5124969;27;19965;-54
2022/09/10 02:02:58;;;;;;;;;;;11.30;99.90;;;;;;5125167;27;19912;-54
2022/09/10 02:05:44;;;;;;;;;;;11.30;99.90;;;;;;5124826;27;19918;-54
2022/09/10 02:08:29;;;;;;;;;;;11.40;99.90;;;;;;5104804;27;19926;-54
2022/09/10 02:11:13;;;;;;;;;;;11.50;99.90;;;;;;5099796;27;19954;-55
2022/09/10 02:13:57;;;;;;;;;;;11.60;99.90;;;;;;5084269;28;19912;-54
2022/09/10 02:16:58;;;;;;;;;;;11.60;99.90;;;;;;5104757;27;19958;-53
2022/09/10 02:19:39;;;;;;;;;;;11.70;99.90;;;;;;5103760;27;20330;-54
2022/09/10 02:22:19;;;;;;;;;;;11.80;99.90;;;;;;5091811;27;19927;-57
2022/09/10 02:25:00;;;;;;;;;;;11.80;99.90;;;;;;5104954;27;20307;-56
2022/09/10 02:27:42;;;;;;;;;;;11.90;99.90;;;;;;5104156;27;19937;-53
2022/09/10 02:30:23;;;;;;;;;;;11.90;99.90;;;;;;5104183;27;20328;-55
2022/09/10 02:33:04;;;;;;;;;;;11.80;99.90;;;;;;5105036;27;19953;-53
2022/09/10 02:35:46;;;;;;;;;;;11.80;99.90;;;;;;5104422;27;19946;-54
2022/09/10 02:38:28;;;;;;;;;;;11.80;99.90;;;;;;5096261;27;19961;-56
2022/09/10 02:41:09;;;;;;;;;;;11.90;99.90;;;;;;5094404;27;19930;-53
2022/09/10 02:43:50;;;;;;;;;;;12.00;99.90;;;;;;5101516;27;19973;-54
2022/09/10 02:46:30;;;;;;;;;;;12.00;99.90;;;;;;5140539;27;20389;-54
2022/09/10 02:49:11;;;;;;;;;;;12.00;99.90;;;;;;5098193;27;19969;-55
2022/09/10 02:51:53;;;;;;;;;;;12.00;99.90;;;;;;5104129;27;19916;-54
2022/09/10 02:54:34;;;;;;;;;;;12.10;99.90;;;;;;5090728;27;19950;-54
2022/09/10 02:57:14;;;;;;;;;;;12.00;99.90;;;;;;5124134;27;19919;-53
2022/09/10 02:59:55;;;;;;;;;;;12.00;99.90;;;;;;5098290;27;19930;-55
2022/09/10 03:02:37;;;;;;;;;;;12.10;99.90;;;;;;5093975;27;20459;-54
2022/09/10 03:05:17;;;;;;;;;;;12.10;99.90;;;;;;5093541;27;19920;-54
2022/09/10 03:07:56;;;;;;;;;;;12.10;99.90;;;;;;5099562;27;19930;-55
2022/09/10 03:10:37;;;;;;;;;;;12.20;99.90;;;;;;5080382;28;20201;-55
2022/09/10 03:13:19;;;;;;;;;;;12.10;99.90;;;;;;5067374;28;20050;-53
2022/09/10 03:16:01;;;;;;;;;;;12.20;99.90;;;;;;5101574;27;19954;-53
2022/09/10 03:18:42;;;;;;;;;;;12.20;99.90;;;;;;5099212;27;19950;-55
2022/09/10 03:21:24;;;;;;;;;;;12.20;99.90;;;;;;5098105;27;19926;-53
2022/09/10 03:24:05;;;;;;;;;;;12.10;99.90;;;;;;5104607;27;19967;-55
2022/09/10 03:26:45;;;;;;;;;;;12.10;99.90;;;;;;5104181;27;20423;-54
2022/09/10 03:29:28;;;;;;;;;;;12.10;99.90;;;;;;5104290;27;19916;-54
2022/09/10 03:32:09;;;;;;;;;;;12.10;99.90;;;;;;5092901;27;19926;-54
2022/09/10 03:34:52;;;;;;;;;;;12.20;99.90;;;;;;5105089;27;19930;-52
2022/09/10 03:37:32;;;;;;;;;;;12.20;99.90;;;;;;5124852;27;19915;-54
2022/09/10 03:40:12;;;;;;;;;;;12.30;99.90;;;;;;5104115;27;19962;-55
2022/09/10 03:42:52;;;;;;;;;;;12.30;99.90;;;;;;5101975;27;20550;-54
2022/09/10 03:45:33;;;;;;;;;;;12.40;99.90;;;;;;5104562;27;19912;-55
2022/09/10 03:48:13;;;;;;;;;;;12.30;99.90;;;;;;5104681;27;19946;-55
2022/09/10 03:50:53;;;;;;;;;;;12.40;99.90;;;;;;5102154;27;20319;-54
2022/09/10 03:53:35;;;;;;;;;;;12.30;99.90;;;;;;5104661;27;19957;-56
2022/09/10 03:56:18;;;;;;;;;;;12.30;99.90;;;;;;5104524;27;19926;-54
2022/09/10 03:58:59;;;;;;;;;;;12.30;99.90;;;;;;5104063;27;20423;-53
2022/09/10 04:01:42;;;;;;;;;;;12.40;99.90;;;;;;5104329;27;20331;-55
2022/09/10 04:04:23;;;;;;;;;;;12.40;99.90;;;;;;5084784;28;19912;-54
2022/09/10 04:07:05;;;;;;;;;;;12.40;99.90;;;;;;5105154;27;19930;-54
2022/09/10 04:09:46;;;;;;;;;;;12.40;99.90;;;;;;5124069;27;19961;-57
2022/09/10 04:12:26;;;;;;;;;;;12.40;99.90;;;;;;5089891;27;19974;-56
2022/09/10 04:15:07;;;;;;;;;;;12.30;99.90;;;;;;5124939;27;19916;-55
2022/09/10 04:17:50;;;;;;;;;;;12.30;99.90;;;;;;5076734;28;19916;-55
2022/09/10 04:20:30;;;;;;;;;;;12.20;99.90;;;;;;5098594;27;19916;-55
2022/09/10 04:23:18;;;;;;;;;;;12.20;99.90;;;;;;5103625;27;19957;-54
2022/09/10 04:25:58;;;;;;;;;;;12.20;99.90;;;;;;5104190;27;19946;-55
2022/09/10 04:28:38;;;;;;;;;;;12.00;99.90;;;;;;5124677;27;19911;-53
2022/09/10 04:31:18;;;;;;;;;;;12.00;99.90;;;;;;5104621;27;19949;-54
2022/09/10 04:34:00;;;;;;;;;;;12.10;99.90;;;;;;5105180;27;19945;-54
2022/09/10 04:36:40;;;;;;;;;;;12.20;99.90;;;;;;5104558;27;20073;-53
2022/09/10 04:39:22;;;;;;;;;;;12.30;99.90;;;;;;5104099;27;19962;-56
2022/09/10 04:42:05;;;;;;;;;;;12.20;99.90;;;;;;5090928;27;20139;-54
2022/09/10 04:44:47;;;;;;;;;;;12.10;99.90;;;;;;5139068;27;19918;-54
2022/09/10 04:47:28;;;;;;;;;;;12.10;99.90;;;;;;5101950;27;19965;-58
2022/09/10 04:50:08;;;;;;;;;;;12.00;99.90;;;;;;5099040;27;19920;-56
2022/09/10 04:52:49;;;;;;;;;;;11.90;99.90;;;;;;5095922;27;19954;-54
2022/09/10 04:55:30;;;;;;;;;;;11.80;99.90;;;;;;5101643;27;20292;-55
2022/09/10 04:58:12;;;;;;;;;;;11.70;99.90;;;;;;5103579;27;19926;-55
2022/09/10 05:00:55;;;;;;;;;;;11.70;99.90;;;;;;5101158;27;19926;-54
2022/09/10 05:03:36;;;;;;;;;;;11.70;99.90;;;;;;5103603;27;20360;-56
2022/09/10 05:06:16;;;;;;;;;;;11.70;99.90;;;;;;5102646;27;19926;-52
2022/09/10 05:08:59;;;;;;;;;;;11.80;99.90;;;;;;5092605;27;20136;-57
2022/09/10 05:11:41;;;;;;;;;;;11.80;99.90;;;;;;5077041;27;19965;-56
2022/09/10 05:14:24;;;;;;;;;;;11.90;99.90;;;;;;5102137;27;19916;-55
2022/09/10 05:17:03;;;;;;;;;;;12.00;99.90;;;;;;5103382;27;20430;-54
2022/09/10 05:19:45;;;;;;;;;;;12.10;99.90;;;;;;5102943;27;19946;-55
2022/09/10 05:22:25;;;;;;;;;;;12.20;99.90;;;;;;5078384;28;19912;-55
2022/09/10 05:25:05;;;;;;;;;;;12.30;99.90;;;;;;5083209;28;19912;-53
2022/09/10 05:27:46;;;;;;;;;;;12.30;99.90;;;;;;5123935;27;19926;-53
2022/09/10 05:30:31;;;;;;;;;;;12.50;99.90;;;;;;5102621;27;19916;-57
2022/09/10 05:33:12;;;;;;;;;;;12.60;99.90;;;;;;5103771;27;19926;-56
2022/09/10 05:35:52;;;;;;;;;;;12.70;99.90;;;;;;5115521;27;19912;-54
2022/09/10 05:38:33;;;;;;;;;;;12.80;99.90;;;;;;5103417;27;19926;-53
2022/09/10 05:41:15;;;;;;;;;;;13.00;99.90;;;;;;5097093;27;19958;-55
2022/09/10 05:44:01;;;;;;;;;;;13.10;99.90;;;;;;5104181;27;20131;-55
2022/09/10 05:46:43;;;;;;;;;;;13.40;99.90;;;;;;5083111;28;20374;-53
2022/09/10 05:49:29;;;;;;;;;;;13.50;99.90;;;;;;5102532;27;19926;-56
2022/09/10 05:52:10;;;;;;;;;;;13.60;99.90;;;;;;5099347;27;19926;-54
2022/09/10 05:54:50;;;;;;;;;;;13.50;99.90;;;;;;5104021;27;19930;-56
2022/09/10 05:57:30;;;;;;;;;;;13.60;99.90;;;;;;5103097;27;19926;-55
2022/09/10 06:00:10;;;;;;;;;;;13.60;99.90;;;;;;5094927;27;20225;-54
2022/09/10 06:03:06;;;;;;;;;;;13.70;99.90;;;;;;5101337;27;19953;-53
2022/09/10 06:05:51;;;;;;;;;;;13.60;99.90;;;;;;5102517;27;19926;-55
2022/09/10 06:08:38;;;;;;;;;;;13.60;99.90;;;;;;5102464;27;19912;-56
2022/09/10 06:11:24;;;;;;;;;;;13.50;99.90;;;;;;5096609;27;19981;-53
2022/09/10 06:14:04;;;;;;;;;;;13.50;99.90;;;;;;5101527;27;20470;-54
2022/09/10 06:16:44;;;;;;;;;;;13.50;99.90;;;;;;5102146;27;19930;-56
2022/09/10 06:19:25;;;;;;;;;;;13.50;99.90;;;;;;5073624;28;20081;-54
2022/09/10 06:22:09;;;;;;;;;;;13.50;99.90;;;;;;5099009;27;19912;-53
2022/09/10 06:24:54;;;;;;;;;;;13.50;99.90;;;;;;5107077;27;20319;-54
2022/09/10 06:27:34;;;;;;;;;;;13.50;99.90;;;;;;5100557;27;19930;-54
2022/09/10 06:30:16;;;;;;;;;;;13.50;99.90;;;;;;5101741;27;19912;-56
2022/09/10 06:33:00;;;;;;;;;;;13.50;99.90;;;;;;5102025;27;19916;-55
2022/09/10 06:35:40;;;;;;;;;;;13.50;99.90;;;;;;5102284;27;19930;-55
2022/09/10 06:38:20;;;;;;;;;;;13.50;99.90;;;;;;5102396;27;19950;-52
2022/09/10 06:41:01;;;;;;;;;;;13.40;99.90;;;;;;5090580;27;19920;-53
2022/09/10 06:43:48;;;;;;;;;;;13.40;99.90;;;;;;5145635;27;20336;-54
2022/09/10 06:46:54;;;;;;;;;;;13.30;99.90;;;;;;5111516;27;19912;-56
2022/09/10 06:49:36;;;;;;;;;;;13.30;99.90;;;;;;5101082;27;20237;-52
2022/09/10 06:52:17;;;;;;;;;;;13.30;99.90;;;;;;5099136;27;19962;-54
2022/09/10 06:55:00;;;;;;;;;;;13.40;99.90;;;;;;5099451;27;19966;-54
2022/09/10 06:57:50;;;;;;;;;;;13.50;99.90;;;;;;5123905;27;20320;-53
2022/09/10 07:00:32;;;;;;;;;;;13.70;99.90;;;;;;5098218;27;19953;-55
2022/09/10 07:03:13;;;;;;;;;;;13.80;99.90;;;;;;5103446;27;19926;-54
2022/09/10 07:05:54;;;;;;;;;;;13.90;99.90;;;;;;5100581;27;19926;-53
2022/09/10 07:08:38;;;;;;;;;;;14.00;99.90;;;;;;5123879;27;19916;-56
2022/09/10 07:11:18;;;;;;;;;;;14.30;99.90;;;;;;5105477;27;19926;-52
2022/09/10 07:14:00;;;;;;;;;;;14.60;99.90;;;;;;5085371;27;19927;-54
2022/09/10 07:16:44;;;;;;;;;;;15.00;99.90;;;;;;5102977;27;19953;-54
2022/09/10 07:19:24;;;;;;;;;;;15.30;99.90;;;;;;5102480;27;19926;-56
2022/09/10 07:22:04;;;;;;;;;;;15.60;99.90;;;;;;5100048;27;19912;-52
2022/09/10 07:24:49;;;;;;;;;;;15.80;99.90;;;;;;5102740;27;19920;-55
2022/09/10 07:27:40;;;;;;;;;;;15.90;99.90;;;;;;5082718;28;19913;-55
2022/09/10 07:30:21;;;;;;;;;;;16.10;99.90;;;;;;5102750;27;19912;-56
2022/09/10 07:33:03;;;;;;;;;;;16.10;99.90;;;;;;5103164;27;19946;-53
2022/09/10 07:35:44;;;;;;;;;;;16.10;99.90;;;;;;5103326;27;19912;-55
2022/09/10 07:38:24;;;;;;;;;;;16.10;99.90;;;;;;5103325;27;20169;-56
2022/09/10 07:41:04;;;;;;;;;;;16.20;99.90;;;;;;5103708;27;19953;-54
2022/09/10 07:43:44;;;;;;;;;;;16.20;99.90;;;;;;5105073;27;20270;-52
2022/09/10 07:46:27;;;;;;;;;;;16.40;99.90;;;;;;5124515;27;19912;-53
2022/09/10 07:49:09;;;;;;;;;;;16.70;99.90;;;;;;5070773;28;19970;-53
2022/09/10 07:51:52;;;;;;;;;;;16.90;99.90;;;;;;5094667;27;20332;-52
2022/09/10 07:54:32;;;;;;;;;;;17.20;99.90;;;;;;5120980;27;19969;-55
2022/09/10 07:57:14;;;;;;;;;;;17.50;99.90;;;;;;5124327;27;19919;-52
2022/09/10 07:59:54;;;;;;;;;;;17.60;99.90;;;;;;5124806;27;19918;-52
2022/09/10 08:02:37;;;;;;;;;;;17.60;99.90;;;;;;5105499;27;19945;-54
2022/09/10 08:05:18;;;;;;;;;;;17.50;99.90;;;;;;5104874;27;20373;-53
2022/09/10 08:08:00;;;;;;;;;;;17.10;99.90;;;;;;5105024;27;19954;-55
2022/09/10 08:10:41;;;;;;;;;;;16.90;99.90;;;;;;5084611;28;19912;-53
2022/09/10 08:13:21;;;;;;;;;;;17.00;99.90;;;;;;5105264;27;19926;-55
2022/09/10 08:16:05;;;;;;;;;;;16.50;99.90;;;;;;5104972;27;20414;-53
2022/09/10 08:18:46;;;;;;;;;;;16.40;99.90;;;;;;5104331;27;20446;-55
2022/09/10 08:21:29;;;;;;;;;;;16.40;99.90;;;;;;5100560;27;20368;-53
2022/09/10 08:24:10;;;;;;;;;;;16.60;99.90;;;;;;5133530;22;20320;-55
2022/09/10 08:26:51;;;;;;;;;;;16.90;99.90;;;;;;5125253;27;19911;-56
2022/09/10 08:29:31;;;;;;;;;;;16.90;99.90;;;;;;5083866;28;20361;-56
2022/09/10 08:32:12;;;;;;;;;;;16.90;99.90;;;;;;5104966;27;19926;-56
2022/09/10 08:34:52;;;;;;;;;;;17.10;99.90;;;;;;5084590;28;19912;-56
2022/09/10 08:37:33;;;;;;;;;;;17.20;99.90;;;;;;5104659;27;19916;-56
2022/09/10 08:40:13;;;;;;;;;;;17.30;99.90;;;;;;5084144;28;19912;-56
2022/09/10 08:42:55;;;;;;;;;;;17.50;99.90;;;;;;5084903;28;19913;-56
2022/09/10 08:45:37;;;;;;;;;;;17.50;99.90;;;;;;5104649;27;19912;-56
2022/09/10 08:48:19;;;;;;;;;;;17.50;99.90;;;;;;5125510;27;20356;-55
2022/09/10 08:51:02;;;;;;;;;;;17.50;99.90;;;;;;5104276;27;19946;-56
2022/09/10 08:53:49;;;;;;;;;;;17.30;99.90;;;;;;5104810;27;20450;-56
2022/09/10 08:56:32;;;;;;;;;;;17.30;99.90;;;;;;5125066;27;19919;-56
2022/09/10 08:59:20;;;;;;;;;;;17.50;99.90;;;;;;5103884;27;19945;-56
2022/09/10 09:02:00;;;;;;;;;;;17.70;99.90;;;;;;5105417;27;19970;-56
2022/09/10 09:04:44;;;;;;;;;;;17.80;99.90;;;;;;5086133;27;20399;-56
2022/09/10 09:07:30;;;;;;;;;;;17.80;99.90;;;;;;5125234;27;19916;-56
2022/09/10 09:10:26;;;;;;;;;;;17.90;99.90;;;;;;5104295;27;19912;-56
2022/09/10 09:13:21;;;;;;;;;;;18.10;99.90;;;;;;5084714;28;19912;-56
2022/09/10 09:16:08;;;;;;;;;;;18.50;99.90;;;;;;5104223;27;19930;-56
2022/09/10 09:19:01;;;;;;;;;;;18.60;99.90;;;;;;5102995;27;20221;-56
2022/09/10 09:21:49;;;;;;;;;;;18.40;99.90;;;;;;5102288;27;19924;-56
2022/09/10 09:24:36;;;;;;;;;;;18.40;99.90;;;;;;5094991;27;20252;-56
2022/09/10 09:27:18;;;;;;;;;;;18.30;99.90;;;;;;5082925;28;19916;-56
2022/09/10 09:30:01;;;;;;;;;;;18.40;99.90;;;;;;5104576;27;19913;-56
2022/09/10 09:32:44;;;;;;;;;;;18.60;99.90;;;;;;5103271;27;19912;-56
2022/09/10 09:35:28;;;;;;;;;;;18.80;99.90;;;;;;5104810;27;19981;-56
2022/09/10 09:38:16;;;;;;;;;;;19.30;99.90;;;;;;5104802;27;19912;-56
2022/09/10 09:40:57;;;;;;;;;;;19.60;99.90;;;;;;5123870;27;19912;-56
2022/09/10 09:43:51;;;;;;;;;;;19.70;99.90;;;;;;5103698;27;19945;-56
2022/09/10 09:46:33;;;;;;;;;;;19.60;99.90;;;;;;5123344;27;19916;-56
2022/09/10 09:49:16;;;;;;;;;;;19.30;99.90;;;;;;5097167;27;19965;-56
2022/09/10 09:51:57;;;;;;;;;;;18.60;99.90;;;;;;5097592;27;19973;-56
2022/09/10 09:54:42;;;;;;;;;;;18.40;99.90;;;;;;5074574;27;20438;-56
2022/09/10 09:57:22;;;;;;;;;;;18.40;99.90;;;;;;5101035;27;19961;-56
2022/09/10 10:00:15;;;;;;;;;;;18.50;99.90;;;;;;5080606;28;20283;-56
2022/09/10 10:02:55;;;;;;;;;;;18.80;99.90;;;;;;5112630;27;19916;-56
2022/09/10 10:05:35;;;;;;;;;;;19.10;99.90;;;;;;5101558;27;19930;-56
2022/09/10 10:08:26;;;;;;;;;;;19.50;99.90;;;;;;5101445;27;19926;-56
2022/09/10 10:11:06;;;;;;;;;;;19.70;99.90;;;;;;5100304;27;19926;-56
2022/09/10 10:13:46;;;;;;;;;;;19.80;99.90;;;;;;5089848;27;20235;-56
2022/09/10 10:16:34;;;;;;;;;;;19.90;99.90;;;;;;5105410;27;19916;-56
2022/09/10 10:19:27;;;;;;;;;;;20.30;99.90;;;;;;5099673;27;20438;-56
2022/09/10 10:22:21;;;;;;;;;;;20.80;99.90;;;;;;5122586;27;19916;-56
2022/09/10 10:25:03;;;;;;;;;;;20.80;99.90;;;;;;5099346;27;19965;-56
2022/09/10 10:27:44;;;;;;;;;;;20.60;99.90;;;;;;5079396;28;19913;-56
2022/09/10 10:30:27;;;;;;;;;;;20.10;99.90;;;;;;5100018;27;20319;-56
2022/09/10 10:33:16;;;;;;;;;;;19.60;99.90;;;;;;5067766;28;20529;-56
2022/09/10 10:36:02;;;;;;;;;;;19.40;99.90;;;;;;5092248;27;19926;-56
2022/09/10 10:38:44;;;;;;;;;;;19.40;99.90;;;;;;5100232;27;20013;-57
2022/09/10 10:41:41;;;;;;;;;;;19.60;99.90;;;;;;5121779;27;19911;-56
2022/09/10 10:44:35;;;;;;;;;;;19.70;99.90;;;;;;5105402;27;20316;-56
2022/09/10 10:47:20;;;;;;;;;;;19.60;99.90;;;;;;5101204;27;20430;-56
2022/09/10 10:50:07;;;;;;;;;;;19.90;99.90;;;;;;5100584;27;19950;-56
2022/09/10 10:52:54;;;;;;;;;;;20.50;99.90;;;;;;5087479;27;19930;-56
2022/09/10 10:55:38;;;;;;;;;;;20.70;99.90;;;;;;5122702;27;19912;-56
2022/09/10 10:58:34;;;;;;;;;;;21.10;99.90;;;;;;5119219;27;19919;-56
2022/09/10 11:01:24;;;;;;;;;;;21.40;99.90;;;;;;5097998;27;19920;-56
2022/09/10 11:04:12;;;;;;;;;;;21.40;99.90;;;;;;5047235;28;19931;-57
2022/09/10 11:06:54;;;;;;;;;;;21.00;99.90;;;;;;5081722;28;19912;-56
2022/09/10 11:09:39;;;;;;;;;;;20.60;99.90;;;;;;5100928;27;20143;-56
2022/09/10 11:12:24;;;;;;;;;;;20.80;99.90;;;;;;5102148;27;19934;-56
2022/09/10 11:15:14;;;;;;;;;;;21.00;99.90;;;;;;5102648;27;19953;-56
2022/09/10 11:17:57;;;;;;;;;;;21.10;99.90;;;;;;5081464;28;19924;-57
2022/09/10 11:20:41;;;;;;;;;;;21.30;99.90;;;;;;5101958;27;19954;-56
2022/09/10 11:23:26;;;;;;;;;;;21.30;99.90;;;;;;5091896;27;19913;-56
2022/09/10 11:26:11;;;;;;;;;;;21.50;99.90;;;;;;5102883;27;19953;-56
2022/09/10 11:29:05;;;;;;;;;;;21.20;99.90;;;;;;5118337;27;19912;-56
2022/09/10 11:31:47;;;;;;;;;;;21.10;99.90;;;;;;5097503;27;20009;-56
2022/09/10 11:34:30;;;;;;;;;;;20.90;99.90;;;;;;5082576;27;19924;-56
2022/09/10 11:37:14;;;;;;;;;;;20.40;99.90;;;;;;5098441;27;19919;-56
2022/09/10 11:39:55;;;;;;;;;;;20.40;99.90;;;;;;5062657;28;19913;-56
2022/09/10 11:42:39;;;;;;;;;;;20.20;99.90;;;;;;5102169;27;20300;-56
2022/09/10 11:45:23;;;;;;;;;;;20.20;99.90;;;;;;5083222;28;20622;-56
2022/09/10 11:48:09;;;;;;;;;;;20.30;99.90;;;;;;5060130;28;19917;-56
2022/09/10 11:50:52;;;;;;;;;;;20.30;99.90;;;;;;5099595;27;19924;-56
2022/09/10 11:53:33;;;;;;;;;;;20.10;99.90;;;;;;5072613;27;20336;-56
2022/09/10 11:56:22;;;;;;;;;;;19.80;99.90;;;;;;5082039;28;19912;-56
2022/09/10 11:59:11;;;;;;;;;;;19.70;99.90;;;;;;5092540;27;19946;-58
2022/09/10 12:02:01;;;;;;;;;;;19.80;99.90;;;;;;5075090;27;20351;-58
2022/09/10 12:04:46;;;;;;;;;;;20.20;99.90;;;;;;5051458;28;19924;-58
2022/09/10 12:07:32;;;;;;;;;;;20.90;99.90;;;;;;5104619;27;19946;-58
2022/09/10 12:10:17;;;;;;;;;;;21.60;99.90;;;;;;5104143;27;19916;-59
2022/09/10 12:12:57;;;;;;;;;;;22.20;99.90;;;;;;5094877;27;19950;-57
2022/09/10 12:15:38;;;;;;;;;;;22.30;99.90;;;;;;5151250;27;19926;-57
2022/09/10 12:18:20;;;;;;;;;;;21.90;99.90;;;;;;5102188;27;19916;-57
2022/09/10 12:21:03;;;;;;;;;;;21.40;99.90;;;;;;5125013;27;19916;-57
2022/09/10 12:23:44;;;;;;;;;;;20.90;99.90;;;;;;5123901;27;19912;-57
2022/09/10 12:26:24;;;;;;;;;;;21.00;99.90;;;;;;5095011;27;19930;-57
2022/09/10 12:29:04;;;;;;;;;;;21.50;99.90;;;;;;5078922;28;19916;-57
2022/09/10 12:32:02;;;;;;;;;;;21.30;99.90;;;;;;5082464;28;19916;-57
2022/09/10 12:34:42;;;;;;;;;;;21.60;99.90;;;;;;5085477;27;19913;-58
2022/09/10 12:37:25;;;;;;;;;;;22.00;99.90;;;;;;5105808;27;19945;-58
2022/09/10 12:40:22;;;;;;;;;;;22.30;99.90;;;;;;5106369;27;19954;-57
2022/09/10 12:43:28;;;;;;;;;;;22.40;99.90;;;;;;5105918;27;20411;-57
2022/09/10 12:46:18;;;;;;;;;;;22.90;99.90;;;;;;5106230;27;19916;-57
2022/09/10 12:49:09;;;;;;;;;;;22.50;99.90;;;;;;5105770;27;20319;-57
2022/09/10 12:51:57;;;;;;;;;;;22.10;99.90;;;;;;5126708;27;20607;-57
2022/09/10 12:54:45;;;;;;;;;;;22.30;99.90;;;;;;5105854;27;20301;-57
2022/09/10 12:57:30;;;;;;;;;;;22.40;99.90;;;;;;5118793;27;19916;-56
2022/09/10 13:00:20;;;;;;;;;;;22.40;99.90;;;;;;5083992;28;19912;-57
2022/09/10 13:03:14;;;;;;;;;;;22.40;99.90;;;;;;5101891;27;19913;-57
2022/09/10 13:05:55;;;;;;;;;;;22.30;99.90;;;;;;5105668;27;19912;-57
2022/09/10 13:08:40;;;;;;;;;;;22.50;99.90;;;;;;5133659;27;19923;-57
2022/09/10 13:11:21;;;;;;;;;;;22.80;99.90;;;;;;5119991;27;19916;-57
2022/09/10 13:14:03;;;;;;;;;;;22.60;99.90;;;;;;5069585;28;19913;-57
2022/09/10 13:16:43;;;;;;;;;;;22.10;99.90;;;;;;5105010;27;19912;-57
2022/09/10 13:19:41;;;;;;;;;;;21.90;99.90;;;;;;5100496;27;19934;-57
2022/09/10 13:22:32;;;;;;;;;;;22.30;99.90;;;;;;5090972;27;20576;-56
2022/09/10 13:25:25;;;;;;;;;;;22.70;99.90;;;;;;5077644;27;20321;-57
2022/09/10 13:28:32;;;;;;;;;;;22.60;99.90;;;;;;5095954;27;20435;-57
2022/09/10 13:31:15;;;;;;;;;;;22.60;99.90;;;;;;5126022;27;19912;-57
2022/09/10 13:34:13;;;;;;;;;;;22.30;99.90;;;;;;5105148;27;20169;-58
2022/09/10 13:37:03;;;;;;;;;;;22.50;99.90;;;;;;5073307;28;19917;-57
2022/09/10 13:40:09;;;;;;;;;;;22.90;99.90;;;;;;5125821;27;19912;-57
2022/09/10 13:43:00;;;;;;;;;;;23.20;99.90;;;;;;5106376;27;20322;-57
2022/09/10 13:45:41;;;;;;;;;;;23.10;99.90;;;;;;5102760;27;19946;-57
2022/09/10 13:48:27;;;;;;;;;;;22.90;99.90;;;;;;5084182;28;19912;-57
2022/09/10 13:51:15;;;;;;;;;;;22.70;99.90;;;;;;5092394;27;20339;-57
2022/09/10 13:53:56;;;;;;;;;;;22.70;99.90;;;;;;5049442;28;19929;-57
2022/09/10 13:56:37;;;;;;;;;;;22.90;99.90;;;;;;5091887;27;19931;-57
2022/09/10 13:59:22;;;;;;;;;;;22.50;99.90;;;;;;5092500;27;19957;-58
2022/09/10 14:02:02;;;;;;;;;;;22.40;99.90;;;;;;5097498;27;20438;-57
2022/09/10 14:04:42;;;;;;;;;;;22.50;99.90;;;;;;5084032;27;19930;-57
2022/09/10 14:07:24;;;;;;;;;;;22.10;99.90;;;;;;5099271;27;20337;-57
2022/09/10 14:10:06;;;;;;;;;;;21.60;99.90;;;;;;5100389;27;19938;-57
2022/09/10 14:12:47;;;;;;;;;;;21.50;99.90;;;;;;5080523;27;20484;-57
2022/09/10 14:15:29;;;;;;;;;;;21.10;99.90;;;;;;5120868;27;19922;-58
2022/09/10 14:18:11;;;;;;;;;;;20.80;99.90;;;;;;5099281;27;19934;-57
2022/09/10 14:20:50;;;;;;;;;;;20.80;99.90;;;;;;5074032;28;19921;-58
2022/09/10 14:23:30;;;;;;;;;;;20.90;99.90;;;;;;5134887;22;20364;-57
2022/09/10 14:26:11;;;;;;;;;;;21.30;99.90;;;;;;5102814;27;19930;-54
2022/09/10 14:28:57;;;;;;;;;;;21.90;99.90;;;;;;5156695;27;19918;-57
2022/09/10 14:31:37;;;;;;;;;;;22.20;99.90;;;;;;5104769;27;20377;-56
2022/09/10 14:34:40;;;;;;;;;;;22.40;99.90;;;;;;5104955;27;19946;-56
2022/09/10 14:37:28;;;;;;;;;;;22.30;99.90;;;;;;5125580;27;20419;-58
2022/09/10 14:40:17;;;;;;;;;;;22.50;99.90;;;;;;5097409;27;19920;-56
2022/09/10 14:43:12;;;;;;;;;;;22.90;99.90;;;;;;5088513;27;19930;-57
2022/09/10 14:45:53;;;;;;;;;;;22.80;99.90;;;;;;5065128;27;19921;-53
2022/09/10 14:48:35;;;;;;;;;;;22.50;99.90;;;;;;5115421;27;19927;-53
2022/09/10 14:51:17;;;;;;;;;;;22.10;99.90;;;;;;5075051;27;19930;-53
2022/09/10 14:53:58;;;;;;;;;;;21.80;99.90;;;;;;5080453;27;19965;-52
2022/09/10 14:56:39;;;;;;;;;;;21.60;99.90;;;;;;5099770;27;20268;-53
2022/09/10 14:59:28;;;;;;;;;;;21.30;99.90;;;;;;5089107;27;19934;-53
2022/09/10 15:02:14;;;;;;;;;;;20.90;99.90;;;;;;5102846;27;19912;-53
2022/09/10 15:04:54;;;;;;;;;;;20.40;99.90;;;;;;5068122;27;19946;-52
2022/09/10 15:07:34;;;;;;;;;;;20.20;99.90;;;;;;5122060;27;19922;-54
2022/09/10 15:10:14;;;;;;;;;;;20.20;99.90;;;;;;5103046;27;19916;-54
2022/09/10 15:12:55;;;;;;;;;;;20.40;99.90;;;;;;5104322;27;19930;-51
2022/09/10 15:15:35;;;;;;;;;;;20.80;99.90;;;;;;5103757;27;20331;-53
2022/09/10 15:18:16;;;;;;;;;;;21.10;99.90;;;;;;5124268;27;19912;-52
2022/09/10 15:20:56;;;;;;;;;;;21.10;99.90;;;;;;5123957;27;20118;-53
2022/09/10 15:23:37;;;;;;;;;;;20.90;99.90;;;;;;5083106;28;20415;-54
2022/09/10 15:26:18;;;;;;;;;;;20.40;99.90;;;;;;5102973;27;19926;-52
2022/09/10 15:28:59;;;;;;;;;;;19.90;99.90;;;;;;5101904;27;20385;-53
2022/09/10 15:31:38;;;;;;;;;;;19.50;99.90;;;;;;5103544;27;19926;-52
2022/09/10 15:34:19;;;;;;;;;;;19.10;99.90;;;;;;5103407;27;19916;-52
2022/09/10 15:37:01;;;;;;;;;;;18.90;99.90;;;;;;5103898;27;20446;-53
2022/09/10 15:39:41;;;;;;;;;;;18.70;99.90;;;;;;5103319;27;20241;-52
2022/09/10 15:42:21;;;;;;;;;;;18.50;99.90;;;;;;5104284;27;19946;-52
2022/09/10 15:45:01;;;;;;;;;;;18.30;99.90;;;;;;5103461;27;19946;-53
2022/09/10 15:47:41;;;;;;;;;;;18.20;99.90;;;;;;5102028;27;20435;-53
2022/09/10 15:50:22;;;;;;;;;;;18.10;99.90;;;;;;5121169;27;19911;-53
2022/09/10 15:53:06;;;;;;;;;;;18.00;99.90;;;;;;5126649;27;19919;-53